Lolani — WDF3586 — position and weather

sailwx.info

Track history (hours):
 
Tides and Currents Weather Stations Pressure Air Temp Water Temp Dewpoint Dewpoint Depression Visibility Wind Speed Wind Dir Waves Ship Positions

Lolani

More information available from US FCC via Universal Licensing System and Coast Guard Vessel Documentation Center.

Last reported at 2014-Jul-25 15:33 UTC. Time now 2014-Aug-01 13:58 UTC.
Position N 49°10' W 123°56'.

Type: Sailing vessel. MMSI: 316026565.

Date/timePositionNaut miles runAvg speedWind from/ knotsBaromVisibWave heightAir tempDewpointWater temp
2014-Jul-25 15:33N 49°10' W 123°56'0 0.1
2014-Jul-25 13:24N 49°10' W 123°56'0 0.0
2014-Jul-25 12:30N 49°10' W 123°56'0 0.0
2014-Jul-25 11:30N 49°10' W 123°56'0 0.0
2014-Jul-25 04:24N 49°10' W 123°56'0 0.0
2014-Jul-25 03:30N 49°10' W 123°56'0 0.0
2014-Jul-25 02:30N 49°10' W 123°56'0 0.0
2014-Jul-25 01:30N 49°10' W 123°56'0 0.0
2014-Jul-25 00:24N 49°10' W 123°56'0 0.0
2014-Jul-24 23:30N 49°10' W 123°56'0 0.0
2014-Jul-24 22:30N 49°10' W 123°56'0 0.0
2014-Jul-24 21:30N 49°10' W 123°56'3 2.3
2014-Jul-24 20:08N 49°13' W 123°56'4 6.4
2014-Jul-24 19:33N 49°16' W 124°00'6 6.1
2014-Jul-24 18:33N 49°19' W 124°08'7 6.5
2014-Jul-24 17:31N 49°23' W 124°17'6 6.6
2014-Jul-24 16:33N 49°26' W 124°25'7 7.2
2014-Jul-24 15:33N 49°30' W 124°35'2 0.7
2014-Jul-24 12:29N 49°31' W 124°37'3 0.2
2014-Jul-23 19:32N 49°29' W 124°40'24 0.5
2014-Jul-21 19:04N 49°50' W 124°56'  
Track history (hours):
 
Tides and Currents Weather Stations Pressure Air Temp Water Temp Dewpoint Dewpoint Depression Visibility Wind Speed Wind Dir Waves Ship Positions

Lolani

More information available from US FCC via Universal Licensing System and Coast Guard Vessel Documentation Center.

Last reported at 2014-Jul-25 15:33 UTC. Time now 2014-Aug-01 13:58 UTC.
Position N 49°10' W 123°56'.

Type: Sailing vessel. MMSI: 316026565.

Date/timePositionNaut miles runAvg speedWind from/ knotsBaromVisibWave heightAir tempDewpointWater temp
2014-Jul-25 15:33N 49°10' W 123°56'0 0.1
2014-Jul-25 13:24N 49°10' W 123°56'0 0.0
2014-Jul-25 12:30N 49°10' W 123°56'0 0.0
2014-Jul-25 11:30N 49°10' W 123°56'0 0.0
2014-Jul-25 04:24N 49°10' W 123°56'0 0.0
2014-Jul-25 03:30N 49°10' W 123°56'0 0.0
2014-Jul-25 02:30N 49°10' W 123°56'0 0.0
2014-Jul-25 01:30N 49°10' W 123°56'0 0.0
2014-Jul-25 00:24N 49°10' W 123°56'0 0.0
2014-Jul-24 23:30N 49°10' W 123°56'0 0.0
2014-Jul-24 22:30N 49°10' W 123°56'0 0.0
2014-Jul-24 21:30N 49°10' W 123°56'3 2.3
2014-Jul-24 20:08N 49°13' W 123°56'4 6.4
2014-Jul-24 19:33N 49°16' W 124°00'6 6.1
2014-Jul-24 18:33N 49°19' W 124°08'7 6.5
2014-Jul-24 17:31N 49°23' W 124°17'6 6.6
2014-Jul-24 16:33N 49°26' W 124°25'7 7.2
2014-Jul-24 15:33N 49°30' W 124°35'2 0.7
2014-Jul-24 12:29N 49°31' W 124°37'3 0.2
2014-Jul-23 19:32N 49°29' W 124°40'24 0.5
2014-Jul-21 19:04N 49°50' W 124°56'  

Dump ship's entire track history